createdAt,value
2023-02-27T00:00:48.444Z,-1.79
2023-02-27T00:01:48.421Z,-1.77
2023-02-27T00:02:48.481Z,-1.77
2023-02-27T00:03:48.496Z,-1.77
2023-02-27T00:04:48.415Z,-1.76
2023-02-27T00:05:48.394Z,-1.72
2023-02-27T00:06:48.366Z,-1.74
2023-02-27T00:07:48.348Z,-1.74
2023-02-27T00:08:48.353Z,-1.72
2023-02-27T00:09:48.346Z,-1.74
2023-02-27T00:10:48.319Z,-1.72
2023-02-27T00:11:48.291Z,-1.74
2023-02-27T00:12:48.269Z,-1.72
2023-02-27T00:13:48.295Z,-1.74
2023-02-27T00:14:48.279Z,-1.72
2023-02-27T00:15:48.352Z,-1.72
2023-02-27T00:16:48.239Z,-1.74
2023-02-27T00:17:48.209Z,-1.74
2023-02-27T00:18:48.214Z,-1.77
2023-02-27T00:19:48.189Z,-1.77
2023-02-27T00:20:48.191Z,-1.79
2023-02-27T00:21:48.170Z,-1.77
2023-02-27T00:22:48.161Z,-1.77
2023-02-27T00:23:48.142Z,-1.76
2023-02-27T00:24:48.132Z,-1.79
2023-02-27T00:25:48.152Z,-1.79
2023-02-27T00:26:48.090Z,-1.80
2023-02-27T00:27:48.145Z,-1.82
2023-02-27T00:28:48.073Z,-1.82
2023-02-27T00:29:48.046Z,-1.82
2023-02-27T00:30:48.085Z,-1.83
2023-02-27T00:31:48.155Z,-1.83
2023-02-27T00:32:48.032Z,-1.82
2023-02-27T00:33:48.020Z,-1.83
2023-02-27T00:34:48.003Z,-1.80
2023-02-27T00:35:47.976Z,-1.80
2023-02-27T00:36:47.990Z,-1.80
2023-02-27T00:37:47.969Z,-1.83
2023-02-27T00:38:47.950Z,-1.83
2023-02-27T00:39:47.910Z,-1.84
2023-02-27T00:40:47.915Z,-1.86
2023-02-27T00:41:47.920Z,-1.84
2023-02-27T00:42:47.897Z,-1.86
2023-02-27T00:43:47.872Z,-1.87
2023-02-27T00:44:47.859Z,-1.89
2023-02-27T00:45:47.841Z,-1.89
2023-02-27T00:46:47.922Z,-1.89
2023-02-27T00:47:47.859Z,-1.89
2023-02-27T00:48:47.797Z,-1.90
2023-02-27T00:49:47.803Z,-1.92
2023-02-27T00:50:47.771Z,-1.92
2023-02-27T00:51:47.759Z,-1.92
2023-02-27T00:52:47.802Z,-1.94
2023-02-27T00:53:47.753Z,-1.95
2023-02-27T00:54:47.714Z,-1.95
2023-02-27T00:55:47.712Z,-1.97
2023-02-27T00:56:47.700Z,-1.97
2023-02-27T00:57:47.750Z,-1.97
2023-02-27T00:58:47.681Z,-1.95
2023-02-27T00:59:47.658Z,-1.95
2023-02-27T01:00:47.668Z,-1.95
2023-02-27T01:01:47.648Z,-1.95
2023-02-27T01:02:47.674Z,-1.94
2023-02-27T01:03:47.599Z,-1.92
2023-02-27T01:04:47.594Z,-1.94
2023-02-27T01:05:47.584Z,-1.95
2023-02-27T01:06:47.579Z,-1.97
2023-02-27T01:07:47.592Z,-1.97
2023-02-27T01:08:47.542Z,-1.95
2023-02-27T01:09:47.536Z,-1.95
2023-02-27T01:10:47.545Z,-1.94
2023-02-27T01:11:47.514Z,-1.94
2023-02-27T01:12:47.526Z,-1.95
2023-02-27T01:13:47.483Z,-1.97
2023-02-27T01:14:47.470Z,-1.97
2023-02-27T01:15:47.459Z,-1.97
2023-02-27T01:16:47.478Z,-1.95
2023-02-27T01:17:47.453Z,-1.97
2023-02-27T01:18:47.436Z,-1.94
2023-02-27T01:19:47.406Z,-1.97
2023-02-27T01:20:47.381Z,-1.97
2023-02-27T01:21:47.393Z,-1.98
2023-02-27T01:22:47.421Z,-1.95
2023-02-27T01:23:47.355Z,-1.97
2023-02-27T01:24:47.343Z,-1.97
2023-02-27T01:25:47.352Z,-1.95
2023-02-27T01:26:47.315Z,-1.97
2023-02-27T01:27:47.302Z,-1.97
2023-02-27T01:28:47.279Z,-1.95
2023-02-27T01:29:47.271Z,-1.95
2023-02-27T01:30:47.345Z,-1.94
2023-02-27T01:31:47.379Z,-1.94
2023-02-27T01:32:47.344Z,-1.94
2023-02-27T01:33:47.238Z,-1.95
2023-02-27T01:34:47.208Z,-1.95
2023-02-27T01:35:47.189Z,-1.95
2023-02-27T01:36:48.188Z,-2.00
2023-02-27T01:37:47.192Z,-1.98
2023-02-27T01:38:47.165Z,-1.98
2023-02-27T01:39:47.175Z,-1.97
2023-02-27T01:40:47.140Z,-1.97
2023-02-27T01:41:47.106Z,-1.97
2023-02-27T01:42:47.106Z,-1.97
2023-02-27T01:43:47.124Z,-1.97
2023-02-27T01:44:47.121Z,-1.98
2023-02-27T01:45:47.105Z,-1.97
2023-02-27T01:46:47.055Z,-1.95
2023-02-27T01:47:47.177Z,-1.97
2023-02-27T01:48:47.060Z,-1.94
2023-02-27T01:49:47.032Z,-1.95
2023-02-27T01:50:47.003Z,-1.95
2023-02-27T01:51:47.000Z,-1.95
2023-02-27T01:52:46.959Z,-1.97
2023-02-27T01:53:46.982Z,-1.98
2023-02-27T01:54:47.023Z,-1.98
2023-02-27T01:55:46.934Z,-2.00
2023-02-27T01:56:46.932Z,-2.00
2023-02-27T01:57:46.915Z,-2.01
2023-02-27T01:58:46.917Z,-2.01
2023-02-27T01:59:46.912Z,-2.01
2023-02-27T02:00:46.935Z,-2.01
2023-02-27T02:01:46.848Z,-2.02
2023-02-27T02:02:46.875Z,-2.00
2023-02-27T02:03:46.825Z,-2.01
2023-02-27T02:04:46.832Z,-2.00
2023-02-27T02:05:46.826Z,-2.00
2023-02-27T02:06:46.800Z,-2.00
2023-02-27T02:07:46.771Z,-2.00
2023-02-27T02:08:46.783Z,-2.00
2023-02-27T02:09:46.774Z,-1.98
2023-02-27T02:10:46.742Z,-1.98
2023-02-27T02:11:46.727Z,-2.00
2023-02-27T02:12:46.730Z,-1.98
2023-02-27T02:13:46.698Z,-1.98
2023-02-27T02:14:46.696Z,-2.00
2023-02-27T02:15:46.705Z,-2.01
2023-02-27T02:16:46.685Z,-2.01
2023-02-27T02:17:46.654Z,-2.02
2023-02-27T02:18:46.672Z,-2.02
2023-02-27T02:19:46.622Z,-2.04
2023-02-27T02:20:46.602Z,-2.07
2023-02-27T02:21:46.624Z,-2.07
2023-02-27T02:22:46.603Z,-2.07
2023-02-27T02:23:46.580Z,-2.07
2023-02-27T02:24:46.602Z,-2.05
2023-02-27T02:25:46.534Z,-2.05
2023-02-27T02:26:46.585Z,-2.02
2023-02-27T02:27:46.508Z,-2.02
2023-02-27T02:28:46.496Z,-2.01
2023-02-27T02:29:46.500Z,-2.00
2023-02-27T02:30:46.632Z,-2.00
2023-02-27T02:31:46.589Z,-2.00
2023-02-27T02:32:46.456Z,-2.00
2023-02-27T02:33:46.449Z,-1.98
2023-02-27T02:34:46.450Z,-2.00
2023-02-27T02:35:46.436Z,-1.97
2023-02-27T02:36:46.418Z,-1.97
2023-02-27T02:37:46.385Z,-1.95
2023-02-27T02:38:46.374Z,-1.97
2023-02-27T02:39:46.383Z,-1.98
2023-02-27T02:40:46.368Z,-1.97
2023-02-27T02:41:46.363Z,-1.97
2023-02-27T02:42:46.311Z,-1.97
2023-02-27T02:43:46.296Z,-1.97
2023-02-27T02:44:46.303Z,-1.98
2023-02-27T02:45:46.357Z,-1.97
2023-02-27T02:46:46.297Z,-1.98
2023-02-27T02:47:46.256Z,-1.98
2023-02-27T02:48:46.233Z,-2.00
2023-02-27T02:49:46.236Z,-2.00
2023-02-27T02:50:46.224Z,-1.98
2023-02-27T02:51:46.248Z,-1.97
2023-02-27T02:52:46.202Z,-1.98
2023-02-27T02:53:46.184Z,-1.97
2023-02-27T02:54:46.173Z,-1.95
2023-02-27T02:55:46.165Z,-1.94
2023-02-27T02:56:46.251Z,-1.97
2023-02-27T02:57:46.164Z,-1.98
2023-02-27T02:58:46.113Z,-1.98
2023-02-27T02:59:46.113Z,-1.97
2023-02-27T03:00:46.091Z,-1.98
2023-02-27T03:01:46.174Z,-1.97
2023-02-27T03:02:46.095Z,-2.00
2023-02-27T03:03:46.052Z,-1.97
2023-02-27T03:04:46.050Z,-1.98
2023-02-27T03:05:46.008Z,-1.97
2023-02-27T03:06:46.004Z,-1.97
2023-02-27T03:07:46.063Z,-1.94
2023-02-27T03:08:46.008Z,-1.95
2023-02-27T03:09:45.993Z,-1.92
2023-02-27T03:10:45.959Z,-1.94
2023-02-27T03:11:45.941Z,-1.90
2023-02-27T03:12:45.962Z,-1.89
2023-02-27T03:13:45.923Z,-1.90
2023-02-27T03:14:45.910Z,-1.89
2023-02-27T03:15:45.981Z,-1.90
2023-02-27T03:16:45.892Z,-1.87
2023-02-27T03:17:45.876Z,-1.87
2023-02-27T03:18:45.874Z,-1.87
2023-02-27T03:19:45.836Z,-1.87
2023-02-27T03:20:45.826Z,-1.87
2023-02-27T03:21:45.798Z,-1.84
2023-02-27T03:22:45.828Z,-1.86
2023-02-27T03:23:45.867Z,-1.87
2023-02-27T03:24:45.767Z,-1.87
2023-02-27T03:25:45.786Z,-1.86
2023-02-27T03:26:45.740Z,-1.86
2023-02-27T03:27:45.736Z,-1.84
2023-02-27T03:28:45.756Z,-1.84
2023-02-27T03:29:45.701Z,-1.84
2023-02-27T03:30:45.796Z,-1.86
2023-02-27T03:31:45.904Z,-1.86
2023-02-27T03:32:45.683Z,-1.86
2023-02-27T03:33:45.682Z,-1.84
2023-02-27T03:34:45.646Z,-1.86
2023-02-27T03:35:45.630Z,-1.83
2023-02-27T03:36:45.618Z,-1.82
2023-02-27T03:37:45.602Z,-1.80
2023-02-27T03:38:45.619Z,-1.80
2023-02-27T03:39:45.587Z,-1.82
2023-02-27T03:40:45.561Z,-1.80
2023-02-27T03:41:45.526Z,-1.80
2023-02-27T03:42:45.535Z,-1.82
2023-02-27T03:43:45.530Z,-1.83
2023-02-27T03:44:45.523Z,-1.84
2023-02-27T03:45:45.491Z,-1.86
2023-02-27T03:46:45.505Z,-1.86
2023-02-27T03:47:45.472Z,-1.86
2023-02-27T03:48:45.463Z,-1.84
2023-02-27T03:49:45.450Z,-1.83
2023-02-27T03:50:45.447Z,-1.84
2023-02-27T03:51:45.416Z,-1.84
2023-02-27T03:52:45.403Z,-1.84
2023-02-27T03:53:45.395Z,-1.84
2023-02-27T03:54:45.370Z,-1.82
2023-02-27T03:55:45.383Z,-1.83
2023-02-27T03:56:45.357Z,-1.83
2023-02-27T03:57:45.325Z,-1.84
2023-02-27T03:58:45.349Z,-1.86
2023-02-27T03:59:45.302Z,-1.86
2023-02-27T04:00:45.307Z,-1.86
2023-02-27T04:01:45.316Z,-1.87
2023-02-27T04:02:45.309Z,-1.89
2023-02-27T04:03:45.262Z,-1.87
2023-02-27T04:04:45.244Z,-1.86
2023-02-27T04:05:45.253Z,-1.87
2023-02-27T04:06:45.231Z,-1.86
2023-02-27T04:07:45.255Z,-1.86
2023-02-27T04:08:45.217Z,-1.87
2023-02-27T04:09:45.169Z,-1.87
2023-02-27T04:10:45.200Z,-1.86
2023-02-27T04:11:45.152Z,-1.86
2023-02-27T04:12:46.038Z,-1.86
2023-02-27T04:13:45.156Z,-1.87
2023-02-27T04:14:45.121Z,-1.86
2023-02-27T04:15:45.126Z,-1.87
2023-02-27T04:16:45.128Z,-1.87
2023-02-27T04:17:45.083Z,-1.86
2023-02-27T04:18:45.065Z,-1.84
2023-02-27T04:19:45.045Z,-1.86
2023-02-27T04:20:45.079Z,-1.83
2023-02-27T04:21:45.020Z,-1.84
2023-02-27T04:22:45.004Z,-1.84
2023-02-27T04:23:44.990Z,-1.86
2023-02-27T04:24:44.994Z,-1.84
2023-02-27T04:25:44.961Z,-1.86
2023-02-27T04:26:44.987Z,-1.87
2023-02-27T04:27:44.950Z,-1.90
2023-02-27T04:28:44.932Z,-1.90
2023-02-27T04:29:44.937Z,-1.89
2023-02-27T04:30:44.963Z,-1.90
2023-02-27T04:31:45.080Z,-1.90
2023-02-27T04:32:45.049Z,-1.94
2023-02-27T04:33:44.894Z,-1.94
2023-02-27T04:34:44.861Z,-1.92
2023-02-27T04:35:44.862Z,-1.94
2023-02-27T04:36:44.850Z,-1.92
2023-02-27T04:37:44.833Z,-1.92
2023-02-27T04:38:44.804Z,-1.92
2023-02-27T04:39:44.812Z,-1.89
2023-02-27T04:40:44.800Z,-1.89
2023-02-27T04:41:44.774Z,-1.89
2023-02-27T04:42:44.804Z,-1.89
2023-02-27T04:43:44.745Z,-1.87
2023-02-27T04:44:44.766Z,-1.86
2023-02-27T04:45:44.760Z,-1.86
2023-02-27T04:46:44.743Z,-1.87
2023-02-27T04:47:44.702Z,-1.86
2023-02-27T04:48:44.756Z,-1.84
2023-02-27T04:49:44.677Z,-1.83
2023-02-27T04:50:44.658Z,-1.84
2023-02-27T04:51:44.687Z,-1.84
2023-02-27T04:52:44.645Z,-1.83
2023-02-27T04:53:44.646Z,-1.83
2023-02-27T04:54:44.593Z,-1.83
2023-02-27T04:55:44.595Z,-1.82
2023-02-27T04:56:44.610Z,-1.83
2023-02-27T04:57:44.580Z,-1.86
2023-02-27T04:58:44.547Z,-1.86
2023-02-27T04:59:44.558Z,-1.86
2023-02-27T05:00:44.550Z,-1.89
2023-02-27T05:01:44.553Z,-1.89
2023-02-27T05:02:44.660Z,-1.89
2023-02-27T05:03:44.499Z,-1.90
2023-02-27T05:04:44.477Z,-1.90
2023-02-27T05:05:44.545Z,-1.89
2023-02-27T05:06:44.475Z,-1.89
2023-02-27T05:07:44.429Z,-1.89
2023-02-27T05:08:44.416Z,-1.90
2023-02-27T05:09:44.414Z,-1.92
2023-02-27T05:10:44.388Z,-1.92
2023-02-27T05:11:44.447Z,-1.92
2023-02-27T05:12:44.361Z,-1.94
2023-02-27T05:13:44.365Z,-1.90
2023-02-27T05:14:44.345Z,-1.90
2023-02-27T05:15:44.393Z,-1.90
2023-02-27T05:16:44.402Z,-1.90
2023-02-27T05:17:44.366Z,-1.89
2023-02-27T05:18:44.325Z,-1.87
2023-02-27T05:19:44.376Z,-1.87
2023-02-27T05:20:44.309Z,-1.84
2023-02-27T05:21:44.359Z,-1.84
2023-02-27T05:22:44.343Z,-1.83
2023-02-27T05:23:44.326Z,-1.83
2023-02-27T05:24:44.203Z,-1.83
2023-02-27T05:25:44.196Z,-1.84
2023-02-27T05:26:44.220Z,-1.87
2023-02-27T05:27:44.163Z,-1.86
2023-02-27T05:28:45.085Z,-1.89
2023-02-27T05:29:44.151Z,-1.89
2023-02-27T05:30:44.154Z,-1.89
2023-02-27T05:31:44.165Z,-1.89
2023-02-27T05:32:44.110Z,-1.87
2023-02-27T05:33:44.144Z,-1.90
2023-02-27T05:34:44.080Z,-1.90
2023-02-27T05:35:44.094Z,-1.90
2023-02-27T05:36:44.057Z,-1.92
2023-02-27T05:37:44.037Z,-1.90
2023-02-27T05:38:44.044Z,-1.90
2023-02-27T05:39:44.048Z,-1.92
2023-02-27T05:40:43.985Z,-1.94
2023-02-27T05:41:43.986Z,-1.90
2023-02-27T05:42:43.985Z,-1.89
2023-02-27T05:43:43.981Z,-1.89
2023-02-27T05:44:43.962Z,-1.89
2023-02-27T05:45:43.972Z,-1.90
2023-02-27T05:46:43.908Z,-1.90
2023-02-27T05:47:43.896Z,-1.89
2023-02-27T05:48:43.930Z,-1.90
2023-02-27T05:49:43.955Z,-1.90
2023-02-27T05:50:43.900Z,-1.90
2023-02-27T05:51:43.865Z,-1.92
2023-02-27T05:52:43.849Z,-1.94
2023-02-27T05:53:43.824Z,-1.95
2023-02-27T05:54:43.848Z,-1.94
2023-02-27T05:55:43.830Z,-1.92
2023-02-27T05:56:43.785Z,-1.94
2023-02-27T05:57:43.768Z,-1.92
2023-02-27T05:58:43.762Z,-1.94
2023-02-27T05:59:43.765Z,-1.95
2023-02-27T06:00:43.756Z,-1.95
2023-02-27T06:01:46.227Z,-1.94
2023-02-27T06:02:43.739Z,-1.94
2023-02-27T06:03:43.734Z,-1.95
2023-02-27T06:04:43.725Z,-1.94
2023-02-27T06:05:43.710Z,-1.95
2023-02-27T06:06:43.685Z,-1.95
2023-02-27T06:07:43.652Z,-1.97
2023-02-27T06:08:43.698Z,-1.98
2023-02-27T06:09:43.644Z,-1.97
2023-02-27T06:10:43.621Z,-1.98
2023-02-27T06:11:43.590Z,-1.95
2023-02-27T06:12:43.621Z,-1.97
2023-02-27T06:13:43.570Z,-1.95
2023-02-27T06:14:43.549Z,-1.95
2023-02-27T06:15:43.573Z,-1.97
2023-02-27T06:16:43.673Z,-1.98
2023-02-27T06:17:43.542Z,-1.98
2023-02-27T06:18:43.503Z,-1.98
2023-02-27T06:19:43.474Z,-1.97
2023-02-27T06:20:43.473Z,-1.95
2023-02-27T06:21:43.484Z,-1.95
2023-02-27T06:22:43.460Z,-1.95
2023-02-27T06:23:43.445Z,-1.95
2023-02-27T06:24:43.462Z,-1.97
2023-02-27T06:25:43.397Z,-1.97
2023-02-27T06:26:43.431Z,-1.97
2023-02-27T06:27:43.401Z,-1.98
2023-02-27T06:28:43.381Z,-1.98
2023-02-27T06:29:43.360Z,-2.00
2023-02-27T06:30:45.975Z,-1.98
2023-02-27T06:31:43.444Z,-1.97
2023-02-27T06:32:43.333Z,-1.94
2023-02-27T06:33:43.319Z,-1.94
2023-02-27T06:34:43.300Z,-1.90
2023-02-27T06:35:43.353Z,-1.89
2023-02-27T06:36:43.282Z,-1.86
2023-02-27T06:37:43.265Z,-1.84
2023-02-27T06:38:43.268Z,-1.83
2023-02-27T06:39:43.278Z,-1.84
2023-02-27T06:40:43.217Z,-1.82
2023-02-27T06:41:43.212Z,-1.82
2023-02-27T06:42:43.216Z,-1.80
2023-02-27T06:43:43.166Z,-1.80
2023-02-27T06:44:43.153Z,-1.80
2023-02-27T06:45:43.159Z,-1.80
2023-02-27T06:46:43.162Z,-1.79
2023-02-27T06:47:43.145Z,-1.76
2023-02-27T06:48:43.115Z,-1.74
2023-02-27T06:49:43.097Z,-1.76
2023-02-27T06:50:43.085Z,-1.74
2023-02-27T06:51:44.983Z,-1.69
2023-02-27T06:52:43.039Z,-1.68
2023-02-27T06:53:43.071Z,-1.68
2023-02-27T06:54:43.025Z,-1.66
2023-02-27T06:55:43.013Z,-1.68
2023-02-27T06:56:43.021Z,-1.66
2023-02-27T06:57:42.987Z,-1.68
2023-02-27T06:58:42.954Z,-1.65
2023-02-27T06:59:42.960Z,-1.62
2023-02-27T07:00:42.953Z,-1.64
2023-02-27T07:01:42.957Z,-1.64
2023-02-27T07:02:42.944Z,-1.59
2023-02-27T07:03:42.911Z,-1.59
2023-02-27T07:04:42.956Z,-1.59
2023-02-27T07:05:42.871Z,-1.58
2023-02-27T07:07:34.541Z,-1.54
2023-02-27T07:07:42.861Z,-1.54
2023-02-27T07:09:01.892Z,-1.51
2023-02-27T07:09:42.852Z,-1.50
2023-02-27T07:10:42.820Z,-1.47
2023-02-27T07:11:42.800Z,-1.46
2023-02-27T07:12:42.781Z,-1.46
2023-02-27T07:13:42.779Z,-1.44
2023-02-27T07:14:42.803Z,-1.41
2023-02-27T07:15:42.805Z,-1.40
2023-02-27T07:16:42.731Z,-1.38
2023-02-27T07:17:42.725Z,-1.35
2023-02-27T07:18:42.716Z,-1.32
2023-02-27T07:19:42.723Z,-1.30
2023-02-27T07:20:42.681Z,-1.29
2023-02-27T07:21:42.706Z,-1.26
2023-02-27T07:22:42.677Z,-1.26
2023-02-27T07:23:42.659Z,-1.25
2023-02-27T07:24:42.646Z,-1.26
2023-02-27T07:25:42.663Z,-1.25
2023-02-27T07:26:42.623Z,-1.25
2023-02-27T07:27:42.586Z,-1.25
2023-02-27T07:28:42.665Z,-1.23
2023-02-27T07:29:42.574Z,-1.22
2023-02-27T07:30:42.584Z,-1.19
2023-02-27T07:31:42.539Z,-1.19
2023-02-27T07:32:42.524Z,-1.15
2023-02-27T07:33:42.526Z,-1.14
2023-02-27T07:34:42.554Z,-1.12
2023-02-27T07:35:42.567Z,-1.09
2023-02-27T07:36:42.504Z,-1.07
2023-02-27T07:37:42.463Z,-1.07
2023-02-27T07:38:42.455Z,-1.08
2023-02-27T07:39:42.441Z,-1.05
2023-02-27T07:40:42.571Z,-1.05
2023-02-27T07:41:42.471Z,-1.01
2023-02-27T07:42:42.407Z,-1.01
2023-02-27T07:43:42.440Z,-0.97
2023-02-27T07:44:42.433Z,-0.94
2023-02-27T07:45:42.414Z,-0.94
2023-02-27T07:46:42.404Z,-0.91
2023-02-27T07:47:42.370Z,-0.91
2023-02-27T07:48:42.351Z,-0.90
2023-02-27T07:49:42.322Z,-0.86
2023-02-27T07:50:42.323Z,-0.86
2023-02-27T07:51:42.331Z,-0.85
2023-02-27T07:52:42.281Z,-0.83
2023-02-27T07:53:42.268Z,-0.83
2023-02-27T07:54:42.273Z,-0.80
2023-02-27T07:55:42.274Z,-0.83
2023-02-27T07:56:42.227Z,-0.86
2023-02-27T07:57:42.203Z,-0.86
2023-02-27T07:58:42.205Z,-0.89
2023-02-27T07:59:42.186Z,-0.86
2023-02-27T08:00:42.196Z,-0.82
2023-02-27T08:01:42.167Z,-0.78
2023-02-27T08:02:42.189Z,-0.77
2023-02-27T08:03:42.138Z,-0.75
2023-02-27T08:04:42.203Z,-0.74
2023-02-27T08:05:42.124Z,-0.72
2023-02-27T08:06:42.082Z,-0.71
2023-02-27T08:07:42.076Z,-0.67
2023-02-27T08:08:42.060Z,-0.64
2023-02-27T08:09:42.136Z,-0.62
2023-02-27T08:10:42.047Z,-0.61
2023-02-27T08:11:42.040Z,-0.61
2023-02-27T08:12:42.019Z,-0.57
2023-02-27T08:13:59.721Z,-0.54
2023-02-27T08:14:42.045Z,-0.52
2023-02-27T08:15:42.001Z,-0.49
2023-02-27T08:16:41.962Z,-0.46
2023-02-27T08:17:41.969Z,-0.46
2023-02-27T08:18:41.953Z,-0.39
2023-02-27T08:19:41.919Z,-0.38
2023-02-27T08:20:41.959Z,-0.36
2023-02-27T08:21:41.915Z,-0.35
2023-02-27T08:22:41.887Z,-0.34
2023-02-27T08:23:42.697Z,-0.34
2023-02-27T08:24:41.855Z,-0.34
2023-02-27T08:25:41.846Z,-0.34
2023-02-27T08:26:41.860Z,-0.32
2023-02-27T08:27:41.874Z,-0.31
2023-02-27T08:28:41.828Z,-0.29
2023-02-27T08:29:41.790Z,-0.29
2023-02-27T08:30:41.772Z,-0.25
2023-02-27T08:31:41.788Z,-0.21
2023-02-27T08:32:41.820Z,-0.21
2023-02-27T08:33:41.762Z,-0.20
2023-02-27T08:34:41.704Z,-0.20
2023-02-27T08:35:41.747Z,-0.17
2023-02-27T08:36:41.729Z,-0.15
2023-02-27T08:37:41.698Z,-0.17
2023-02-27T08:38:41.668Z,-0.15
2023-02-27T08:39:41.677Z,-0.14
2023-02-27T08:40:41.650Z,-0.15
2023-02-27T08:41:41.643Z,-0.17
2023-02-27T08:42:41.659Z,-0.20
2023-02-27T08:43:41.589Z,-0.18
2023-02-27T08:44:41.577Z,-0.20
2023-02-27T08:45:41.624Z,-0.18
2023-02-27T08:46:41.568Z,-0.17
2023-02-27T08:47:41.560Z,-0.20
2023-02-27T08:48:41.534Z,-0.21
2023-02-27T08:49:41.612Z,-0.23
2023-02-27T08:50:41.532Z,-0.23
2023-02-27T08:51:41.523Z,-0.23
2023-02-27T08:52:41.488Z,-0.21
2023-02-27T08:53:41.485Z,-0.20
2023-02-27T08:54:41.482Z,-0.18
2023-02-27T08:55:41.474Z,-0.15
2023-02-27T08:56:41.459Z,-0.13
2023-02-27T08:57:41.410Z,-0.10
2023-02-27T08:58:41.430Z,-0.07
2023-02-27T08:59:41.424Z,-0.08
2023-02-27T09:00:41.438Z,-0.07
2023-02-27T09:01:41.394Z,-0.06
2023-02-27T09:02:41.362Z,-0.06
2023-02-27T09:03:41.339Z,-0.03
2023-02-27T09:04:41.313Z,-0.06
2023-02-27T09:05:41.339Z,-0.06
2023-02-27T09:06:41.320Z,-0.06
2023-02-27T09:07:41.277Z,-0.06
2023-02-27T09:08:41.299Z,-0.02
2023-02-27T09:09:41.242Z,0.00
2023-02-27T09:10:41.262Z,0.01
2023-02-27T09:11:41.275Z,0.05
2023-02-27T09:12:41.209Z,0.04
2023-02-27T09:13:41.224Z,0.04
2023-02-27T09:14:41.196Z,0.04
2023-02-27T09:15:41.178Z,0.03
2023-02-27T09:16:41.264Z,0.03
2023-02-27T09:17:41.163Z,0.04
2023-02-27T09:18:41.159Z,0.07
2023-02-27T09:19:41.147Z,0.08
2023-02-27T09:20:41.107Z,0.04
2023-02-27T09:21:41.111Z,0.01
2023-02-27T09:22:41.097Z,0.00
2023-02-27T09:23:41.078Z,-0.03
2023-02-27T09:24:41.049Z,-0.03
2023-02-27T09:25:41.127Z,-0.02
2023-02-27T09:26:46.064Z,0.00
2023-02-27T09:27:41.017Z,0.04
2023-02-27T09:28:41.003Z,0.05
2023-02-27T09:29:41.009Z,0.05
2023-02-27T09:30:40.989Z,0.07
2023-02-27T09:31:41.023Z,0.10
2023-02-27T09:32:41.027Z,0.11
2023-02-27T09:33:40.950Z,0.18
2023-02-27T09:34:40.931Z,0.21
2023-02-27T09:35:40.940Z,0.26
2023-02-27T09:36:40.929Z,0.29
2023-02-27T09:37:40.954Z,0.34
2023-02-27T09:38:41.499Z,0.36
2023-02-27T09:39:40.869Z,0.39
2023-02-27T09:40:40.882Z,0.37
2023-02-27T09:41:40.838Z,0.37
2023-02-27T09:42:40.873Z,0.37
2023-02-27T09:43:40.881Z,0.34
2023-02-27T09:44:46.607Z,0.36
2023-02-27T09:45:40.823Z,0.37
2023-02-27T09:46:40.789Z,0.39
2023-02-27T09:47:40.808Z,0.41
2023-02-27T09:48:40.782Z,0.43
2023-02-27T09:49:40.719Z,0.46
2023-02-27T09:50:40.739Z,0.46
2023-02-27T09:51:40.705Z,0.49
2023-02-27T09:52:40.687Z,0.50
2023-02-27T09:53:40.713Z,0.47
2023-02-27T09:54:41.852Z,0.46
2023-02-27T09:55:40.648Z,0.47
2023-02-27T09:56:40.708Z,0.46
2023-02-27T09:57:40.619Z,0.49
2023-02-27T09:58:40.759Z,0.52
2023-02-27T09:59:40.614Z,0.52
2023-02-27T10:00:40.580Z,0.58
2023-02-27T10:01:40.560Z,0.55
2023-02-27T10:02:40.596Z,0.55
2023-02-27T10:03:40.621Z,0.50
2023-02-27T10:04:40.570Z,0.47
2023-02-27T10:05:40.504Z,0.44
2023-02-27T10:06:40.509Z,0.43
2023-02-27T10:07:40.492Z,0.44
2023-02-27T10:08:40.488Z,0.47
2023-02-27T10:09:40.480Z,0.49
2023-02-27T10:10:40.472Z,0.49
2023-02-27T10:11:40.440Z,0.55
2023-02-27T10:12:40.416Z,0.59
2023-02-27T10:13:40.424Z,0.62
2023-02-27T10:14:40.422Z,0.60
2023-02-27T10:15:40.460Z,0.58
2023-02-27T10:16:40.403Z,0.59
2023-02-27T10:17:40.371Z,0.59
2023-02-27T10:18:40.360Z,0.60
2023-02-27T10:19:40.386Z,0.59
2023-02-27T10:20:40.340Z,0.59
2023-02-27T10:21:40.300Z,0.56
2023-02-27T10:22:40.297Z,0.56
2023-02-27T10:23:40.289Z,0.58
2023-02-27T10:24:40.272Z,0.52
2023-02-27T10:25:40.310Z,0.52
2023-02-27T10:26:40.250Z,0.50
2023-02-27T10:27:40.236Z,0.49
2023-02-27T10:28:40.219Z,0.47
2023-02-27T10:29:40.197Z,0.46
2023-02-27T10:30:40.319Z,0.47
2023-02-27T10:31:40.169Z,0.46
2023-02-27T10:32:40.182Z,0.47
2023-02-27T10:33:40.176Z,0.46
2023-02-27T10:34:40.159Z,0.47
2023-02-27T10:35:40.160Z,0.49
2023-02-27T10:36:40.161Z,0.50
2023-02-27T10:37:40.100Z,0.52
2023-02-27T10:38:40.105Z,0.50
2023-02-27T10:39:40.102Z,0.55
2023-02-27T10:40:40.096Z,0.52
2023-02-27T10:41:40.180Z,0.55
2023-02-27T10:42:41.668Z,0.55
2023-02-27T10:43:40.018Z,0.58
2023-02-27T10:44:42.028Z,0.55
2023-02-27T10:45:39.992Z,0.52
2023-02-27T10:46:40.113Z,0.55
2023-02-27T10:47:39.962Z,0.52
2023-02-27T10:48:39.979Z,0.49
2023-02-27T10:49:39.945Z,0.47
2023-02-27T10:50:39.935Z,0.47
2023-02-27T10:51:39.940Z,0.47
2023-02-27T10:52:40.572Z,0.47
2023-02-27T10:53:39.880Z,0.46
2023-02-27T10:54:39.904Z,0.47
2023-02-27T10:55:39.844Z,0.49
2023-02-27T10:56:39.848Z,0.55
2023-02-27T10:57:39.841Z,0.55
2023-02-27T10:58:39.833Z,0.59
2023-02-27T10:59:39.796Z,0.56
2023-02-27T11:00:39.798Z,0.58
2023-02-27T11:01:39.816Z,0.60
2023-02-27T11:02:39.763Z,0.62
2023-02-27T11:03:41.412Z,0.59
2023-02-27T11:04:39.858Z,0.60
2023-02-27T11:05:39.726Z,0.58
2023-02-27T11:06:39.700Z,0.58
2023-02-27T11:07:39.734Z,0.59
2023-02-27T11:08:39.689Z,0.60
2023-02-27T11:09:39.690Z,0.65
2023-02-27T11:10:39.661Z,0.68
2023-02-27T11:11:39.639Z,0.70
2023-02-27T11:12:39.693Z,0.73
2023-02-27T11:13:39.602Z,0.74
2023-02-27T11:14:39.603Z,0.76
2023-02-27T11:15:39.648Z,0.76
2023-02-27T11:16:39.605Z,0.77
2023-02-27T11:17:39.564Z,0.80
2023-02-27T11:18:39.606Z,0.83
2023-02-27T11:19:39.539Z,0.81
2023-02-27T11:20:39.529Z,0.83
2023-02-27T11:21:39.556Z,0.80
2023-02-27T11:22:39.508Z,0.80
2023-02-27T11:23:39.492Z,0.77
2023-02-27T11:24:39.483Z,0.77
2023-02-27T11:25:39.462Z,0.77
2023-02-27T11:26:39.473Z,0.77
2023-02-27T11:27:39.459Z,0.80
2023-02-27T11:28:39.414Z,0.80
2023-02-27T11:29:39.404Z,0.81
2023-02-27T11:30:39.382Z,0.81
2023-02-27T11:31:39.368Z,0.81
2023-02-27T11:32:39.410Z,0.83
2023-02-27T11:33:39.369Z,0.86
2023-02-27T11:34:39.333Z,0.83
2023-02-27T11:35:39.389Z,0.81
2023-02-27T11:36:39.331Z,0.81
2023-02-27T11:37:39.342Z,0.80
2023-02-27T11:38:39.333Z,0.78
2023-02-27T11:39:39.276Z,0.81
2023-02-27T11:40:39.262Z,0.83
2023-02-27T11:41:39.256Z,0.83
2023-02-27T11:42:39.229Z,0.83
2023-02-27T11:43:39.250Z,0.83
2023-02-27T11:44:49.975Z,0.87
2023-02-27T11:46:04.429Z,0.86
2023-02-27T11:46:47.295Z,0.88
2023-02-27T11:47:39.233Z,0.92
2023-02-27T11:48:39.227Z,0.94
2023-02-27T11:49:39.146Z,0.92
2023-02-27T11:50:39.140Z,0.92
2023-02-27T11:51:39.170Z,0.94
2023-02-27T11:52:39.110Z,0.94
2023-02-27T11:53:39.133Z,0.95
2023-02-27T11:54:39.072Z,0.96
2023-02-27T11:55:39.079Z,0.98
2023-02-27T11:56:39.094Z,0.99
2023-02-27T11:57:39.044Z,0.99
2023-02-27T11:58:39.033Z,1.01
2023-02-27T11:59:39.034Z,0.98
2023-02-27T12:00:38.996Z,0.99
2023-02-27T12:01:38.986Z,0.96
2023-02-27T12:02:39.459Z,0.96
2023-02-27T12:03:38.968Z,0.96
2023-02-27T12:04:38.940Z,0.99
2023-02-27T12:05:38.939Z,0.98
2023-02-27T12:06:38.906Z,1.02
2023-02-27T12:07:38.946Z,1.05
2023-02-27T12:08:38.887Z,1.04
2023-02-27T12:09:38.907Z,1.05
2023-02-27T12:10:38.885Z,1.06
2023-02-27T12:11:38.860Z,1.06
2023-02-27T12:12:38.844Z,1.04
2023-02-27T12:13:38.831Z,0.99
2023-02-27T12:14:38.837Z,0.98
2023-02-27T12:15:38.835Z,0.99
2023-02-27T12:16:38.847Z,0.99
2023-02-27T12:17:38.790Z,0.95
2023-02-27T12:18:38.768Z,0.95
2023-02-27T12:19:38.753Z,0.94
2023-02-27T12:20:38.734Z,0.95
2023-02-27T12:21:38.749Z,0.96
2023-02-27T12:22:38.701Z,0.95
2023-02-27T12:23:38.683Z,0.99
2023-02-27T12:24:38.696Z,0.99
2023-02-27T12:25:38.662Z,0.95
2023-02-27T12:26:38.721Z,0.95
2023-02-27T12:27:38.642Z,0.92
2023-02-27T12:28:38.635Z,0.88
2023-02-27T12:29:38.602Z,0.86
2023-02-27T12:30:38.604Z,0.84
2023-02-27T12:31:38.659Z,0.80
2023-02-27T12:32:38.628Z,0.78
2023-02-27T12:33:38.564Z,0.78
2023-02-27T12:34:38.561Z,0.78
2023-02-27T12:35:38.574Z,0.78
2023-02-27T12:36:38.530Z,0.80
2023-02-27T12:37:38.494Z,0.74
2023-02-27T12:38:38.503Z,0.70
2023-02-27T12:39:38.537Z,0.68
2023-02-27T12:40:38.496Z,0.68
2023-02-27T12:41:38.454Z,0.68
2023-02-27T12:42:38.435Z,0.68
2023-02-27T12:43:38.459Z,0.69
2023-02-27T12:44:38.417Z,0.70
2023-02-27T12:45:38.430Z,0.70
2023-02-27T12:46:41.710Z,0.74
2023-02-27T12:47:38.371Z,0.77
2023-02-27T12:48:38.400Z,0.78
2023-02-27T12:49:38.348Z,0.78
2023-02-27T12:50:38.337Z,0.76
2023-02-27T12:51:38.339Z,0.77
2023-02-27T12:52:38.292Z,0.78
2023-02-27T12:53:38.291Z,0.74
2023-02-27T12:54:38.332Z,0.74
2023-02-27T12:55:38.268Z,0.74
2023-02-27T12:56:38.250Z,0.78
2023-02-27T12:57:38.243Z,0.80
2023-02-27T12:58:38.247Z,0.83
2023-02-27T12:59:38.238Z,0.84
2023-02-27T13:00:38.203Z,0.81